Time;durP1;ratioP1;P1;durP2;ratioP2;P2;SDS_P1;SDS_P2;PMS_P1;PMS_P2;Temp;Humidity;BMP_temperature;BMP_pressure;BME280_temperature;BME280_humidity;BME280_pressure;Samples;Min_cycle;Max_cycle;Signal;HPM_P1;HPM_P2
2022/01/07 00:00:15;;;;;;;20.43;9.33;;;;;;;0.74;100.00;99378.38;1686426;83;21535;-68
2022/01/07 00:02:40;;;;;;;21.73;8.75;;;;;;;0.70;100.00;99380.58;1698373;83;21084;-67
2022/01/07 00:05:09;;;;;;;18.65;8.15;;;;;;;0.66;100.00;99377.58;1711621;83;21082;-69
2022/01/07 00:07:37;;;;;;;15.33;8.10;;;;;;;0.59;100.00;99389.28;1713829;83;21036;-69
2022/01/07 00:10:05;;;;;;;12.33;7.10;;;;;;;0.55;100.00;99387.61;1712181;83;21098;-67
2022/01/07 00:12:31;;;;;;;18.00;8.03;;;;;;;0.51;100.00;99385.06;1711848;83;21087;-68
2022/01/07 00:14:58;;;;;;;15.23;6.55;;;;;;;0.46;100.00;99387.69;1711386;83;21062;-68
2022/01/07 00:17:25;;;;;;;12.70;7.55;;;;;;;0.44;100.00;99395.91;1711764;83;21066;-68
2022/01/07 00:19:51;;;;;;;13.80;7.15;;;;;;;0.38;100.00;99401.13;1711113;83;21575;-69
2022/01/07 00:22:18;;;;;;;15.48;7.03;;;;;;;0.36;100.00;99404.16;1707905;83;21138;-68
2022/01/07 00:24:45;;;;;;;13.93;6.65;;;;;;;0.33;100.00;99410.66;1683058;83;21113;-67
2022/01/07 00:27:11;;;;;;;14.58;7.00;;;;;;;0.35;100.00;99416.70;1686956;83;21549;-68
2022/01/07 00:29:38;;;;;;;15.90;7.08;;;;;;;0.40;100.00;99414.92;1690099;84;21100;-69
2022/01/07 00:32:06;;;;;;;12.78;6.95;;;;;;;0.46;100.00;99418.78;1690111;84;21054;-68
2022/01/07 00:34:34;;;;;;;12.33;7.30;;;;;;;0.51;100.00;99422.19;1690271;84;21123;-68
2022/01/07 00:37:00;;;;;;;13.43;6.60;;;;;;;0.56;100.00;99411.78;1688583;83;21117;-69
2022/01/07 00:39:27;;;;;;;14.55;6.72;;;;;;;0.60;100.00;99419.52;1683082;85;21036;-68
2022/01/07 00:41:53;;;;;;;12.68;6.05;;;;;;;0.63;100.00;99413.01;1682649;85;21101;-68
2022/01/07 00:44:20;;;;;;;10.65;6.08;;;;;;;0.64;100.00;99420.34;1683092;85;21078;-69
2022/01/07 00:46:47;;;;;;;12.30;6.05;;;;;;;0.62;100.00;99425.56;1683025;85;21114;-67
2022/01/07 00:49:20;;;;;;;11.90;5.62;;;;;;;0.60;100.00;99427.30;1682729;85;21050;-67
2022/01/07 00:51:42;;;;;;;12.68;6.75;;;;;;;0.57;100.00;99423.41;1682173;85;21105;-67
2022/01/07 00:54:09;;;;;;;12.80;5.95;;;;;;;0.56;100.00;99425.59;1671673;84;21183;-66
2022/01/07 00:56:36;;;;;;;11.68;5.53;;;;;;;0.55;100.00;99435.55;1670459;85;21614;-66
2022/01/07 00:59:02;;;;;;;11.80;5.10;;;;;;;0.56;100.00;99428.63;1670381;85;21220;-67
2022/01/07 01:01:29;;;;;;;11.83;6.03;;;;;;;0.59;99.90;99442.41;1687610;84;21064;-66
2022/01/07 01:03:56;;;;;;;12.78;5.37;;;;;;;0.61;99.46;99440.66;1698327;84;21147;-66
2022/01/07 01:06:22;;;;;;;11.57;5.03;;;;;;;0.66;99.60;99448.84;1698651;84;21567;-66
2022/01/07 01:08:49;;;;;;;7.08;4.30;;;;;;;0.66;97.54;99456.62;1698575;84;21071;-66
2022/01/07 01:11:15;;;;;;;8.25;4.22;;;;;;;0.68;98.04;99450.98;1698776;84;22234;-68
2022/01/07 01:13:42;;;;;;;8.05;4.10;;;;;;;0.66;96.61;99456.62;1698288;84;21095;-69
2022/01/07 01:16:09;;;;;;;8.30;3.42;;;;;;;0.67;97.39;99455.73;1698549;84;21615;-67
2022/01/07 01:18:36;;;;;;;9.45;3.35;;;;;;;0.64;95.96;99448.84;1698665;84;21037;-67
2022/01/07 01:21:03;;;;;;;7.12;3.33;;;;;;;0.63;95.62;99445.84;1662293;86;21651;-70
2022/01/07 01:23:29;;;;;;;5.12;2.90;;;;;;;0.59;95.25;99454.06;1662160;86;21187;-69
2022/01/07 01:25:56;;;;;;;5.95;2.85;;;;;;;0.58;95.55;99452.36;1662074;86;21125;-70
2022/01/07 01:28:22;;;;;;;6.85;2.92;;;;;;;0.53;95.03;99455.84;1695596;84;21107;-71
2022/01/07 01:30:49;;;;;;;4.42;2.15;;;;;;;0.46;94.93;99458.93;1694620;84;21732;-68
2022/01/07 01:33:15;;;;;;;5.62;2.60;;;;;;;0.44;95.35;99452.89;1698734;84;21112;-67
2022/01/07 01:35:43;;;;;;;4.53;2.80;;;;;;;0.40;95.42;99461.55;1698528;84;22379;-67
2022/01/07 01:38:10;;;;;;;6.65;2.83;;;;;;;0.37;95.97;99464.17;1698344;84;21063;-67
2022/01/07 01:40:37;;;;;;;3.75;2.30;;;;;;;0.32;95.82;99468.50;1698540;84;21037;-67
2022/01/07 01:43:04;;;;;;;6.30;2.58;;;;;;;0.29;96.25;99477.59;1698793;84;21083;-67
2022/01/07 01:45:31;;;;;;;5.17;2.62;;;;;;;0.26;96.62;99482.80;1698436;83;21527;-67
2022/01/07 01:47:58;;;;;;;5.60;2.95;;;;;;;0.26;97.57;99477.62;1698377;83;21951;-67
2022/01/07 01:50:26;;;;;;;3.42;2.40;;;;;;;0.28;97.75;99490.13;1698640;84;21615;-66
2022/01/07 01:52:54;;;;;;;4.37;2.60;;;;;;;0.30;97.96;99497.02;1695880;83;21057;-69
2022/01/07 01:55:25;;;;;;;4.60;2.80;;;;;;;0.31;97.60;99490.95;1694355;83;21358;-66
2022/01/07 01:57:52;;;;;;;4.85;2.60;;;;;;;0.36;97.01;99501.28;1711097;83;22119;-68
2022/01/07 02:00:23;;;;;;;4.45;2.67;;;;;;;0.42;96.90;99510.33;1711130;83;22099;-67
2022/01/07 02:05:27;;;;;;;4.10;2.60;;;;;;;0.51;95.89;99515.90;1801316;78;23296;-67
2022/01/07 02:07:54;;;;;;;4.30;2.22;;;;;;;0.50;96.06;99521.48;1777544;80;21053;-66
2022/01/07 02:10:21;;;;;;;7.42;2.17;;;;;;;0.56;95.74;99531.83;1755730;81;22379;-67
2022/01/07 02:12:49;;;;;;;3.85;2.30;;;;;;;0.58;94.96;99527.50;1755431;81;21710;-68
2022/01/07 02:15:17;;;;;;;3.95;2.17;;;;;;;0.60;94.99;99533.54;1755635;81;21097;-67
2022/01/07 02:17:47;;;;;;;5.90;2.52;;;;;;;0.64;95.17;99535.66;1755748;81;21073;-66
2022/01/07 02:20:18;;;;;;;3.10;2.20;;;;;;;0.66;95.03;99534.36;1756008;81;21039;-67
2022/01/07 02:22:44;;;;;;;3.92;2.50;;;;;;;0.69;95.72;99531.33;1759837;81;21950;-67
2022/01/07 02:25:11;;;;;;;5.30;2.75;;;;;;;0.71;95.64;99537.78;1755863;81;20938;-67
2022/01/07 02:27:40;;;;;;;4.70;2.37;;;;;;;0.72;95.18;99537.78;1722302;83;21112;-66
2022/01/07 02:30:10;;;;;;;4.83;2.75;;;;;;;0.72;95.51;99542.11;1721902;83;21158;-67
2022/01/07 02:32:37;;;;;;;3.17;2.22;;;;;;;0.70;95.27;99546.44;1721936;83;21050;-68
2022/01/07 02:35:05;;;;;;;2.70;1.90;;;;;;;0.67;95.54;99548.62;1696040;84;21105;-67
2022/01/07 02:37:32;;;;;;;2.70;1.90;;;;;;;0.70;96.63;99556.80;1696231;84;21081;-67
2022/01/07 02:39:59;;;;;;;3.40;1.92;;;;;;;0.70;97.37;99561.98;1696297;84;21116;-68
2022/01/07 02:42:25;;;;;;;3.90;1.75;;;;;;;0.72;98.14;99560.25;1696040;84;21124;-67
2022/01/07 02:44:52;;;;;;;2.95;1.80;;;;;;;0.70;98.90;99568.03;1695786;84;21109;-68
2022/01/07 02:47:21;;;;;;;3.75;2.10;;;;;;;0.65;100.00;99563.75;1714361;83;21131;-67
2022/01/07 02:49:50;;;;;;;3.47;1.90;;;;;;;0.61;100.00;99568.94;1683972;85;21100;-67
2022/01/07 02:52:17;;;;;;;4.53;1.98;;;;;;;0.59;100.00;99568.08;1714142;82;21067;-69
2022/01/07 02:54:43;;;;;;;5.15;2.42;;;;;;;0.57;100.00;99573.70;1706498;84;21057;-66
2022/01/07 02:57:09;;;;;;;3.80;2.17;;;;;;;0.56;100.00;99578.47;1706282;84;21128;-68
2022/01/07 02:59:36;;;;;;;4.28;2.37;;;;;;;0.54;100.00;99578.91;1706425;84;21137;-70
2022/01/07 03:02:04;;;;;;;6.42;2.42;;;;;;;0.49;100.00;99581.96;1706300;84;21093;-68
2022/01/07 03:04:31;;;;;;;3.80;2.10;;;;;;;0.45;100.00;99598.38;1703140;83;22211;-68
2022/01/07 03:06:58;;;;;;;3.02;1.92;;;;;;;0.41;100.00;99614.80;1709173;83;21590;-67
2022/01/07 03:09:24;;;;;;;2.50;1.95;;;;;;;0.39;100.00;99616.12;1679219;85;21085;-70
2022/01/07 03:11:51;;;;;;;5.10;2.42;;;;;;;0.37;100.00;99618.30;1675341;83;21129;-71
2022/01/07 03:14:19;;;;;;;3.20;1.98;;;;;;;0.35;100.00;99622.62;1651096;86;21154;-72
2022/01/07 03:16:47;;;;;;;4.22;1.98;;;;;;;0.34;100.00;99626.91;1650653;86;21072;-75
2022/01/07 03:19:13;;;;;;;3.72;2.15;;;;;;;0.34;100.00;99632.09;1650851;86;21596;-71
2022/01/07 03:21:40;;;;;;;3.62;1.90;;;;;;;0.34;100.00;99631.23;1650875;86;21696;-71
2022/01/07 03:24:07;;;;;;;3.22;1.67;;;;;;;0.30;100.00;99639.88;1626185;86;21718;-72
2022/01/07 03:26:33;;;;;;;3.45;1.90;;;;;;;0.27;100.00;99647.67;1659779;85;21053;-71
2022/01/07 03:29:00;;;;;;;2.35;1.70;;;;;;;0.23;100.00;99649.83;1683420;85;21065;-72
2022/01/07 03:31:26;;;;;;;2.95;1.62;;;;;;;0.22;100.00;99650.72;1708635;83;21037;-72
2022/01/07 03:33:52;;;;;;;4.55;1.85;;;;;;;0.23;100.00;99651.13;1699075;84;21541;-71
2022/01/07 03:36:19;;;;;;;2.87;1.50;;;;;;;0.22;100.00;99657.19;1708747;83;21233;-71
2022/01/07 03:38:47;;;;;;;3.10;1.80;;;;;;;0.20;100.00;99659.77;1699729;84;21085;-73
2022/01/07 03:41:13;;;;;;;1.87;1.50;;;;;;;0.18;100.00;99663.68;1709204;83;21044;-72
2022/01/07 03:43:40;;;;;;;2.92;1.77;;;;;;;0.19;100.00;99673.59;1703326;84;21089;-72
2022/01/07 03:46:07;;;;;;;1.82;1.40;;;;;;;0.13;100.00;99677.48;1712340;83;21519;-71
2022/01/07 03:48:33;;;;;;;4.08;1.60;;;;;;;0.10;100.00;99678.80;1700061;84;21111;-71
2022/01/07 03:51:00;;;;;;;2.58;1.57;;;;;;;0.04;100.00;99671.88;1708696;83;21076;-71
2022/01/07 03:53:26;;;;;;;2.67;1.65;;;;;;;0.08;100.00;99687.84;1682706;84;21068;-70
2022/01/07 03:55:53;;;;;;;2.90;1.50;;;;;;;0.07;100.00;99690.02;1673196;85;21600;-70
2022/01/07 03:58:20;;;;;;;3.47;1.30;;;;;;;0.06;100.00;99694.75;1682176;85;21042;-71
2022/01/07 04:00:47;;;;;;;3.72;1.50;;;;;;;0.06;100.00;99699.08;1678707;85;21168;-70
2022/01/07 04:03:16;;;;;;;1.98;1.32;;;;;;;0.02;100.00;99704.67;1697880;84;21069;-72
2022/01/07 04:05:42;;;;;;;2.17;1.47;;;;;;;0.00;100.00;99709.02;1670824;85;21074;-73
2022/01/07 04:08:09;;;;;;;2.55;1.00;;;;;;;-0.02;100.00;99712.05;1731969;82;21122;-71
2022/01/07 04:10:36;;;;;;;1.85;1.30;;;;;;;-0.03;100.00;99720.66;1669586;85;21077;-74
2022/01/07 04:13:03;;;;;;;4.22;1.37;;;;;;;-0.07;100.00;99718.52;1733827;82;21046;-72
2022/01/07 04:15:30;;;;;;;1.85;1.20;;;;;;;-0.10;100.00;99729.29;1733761;82;21922;-72
2022/01/07 04:17:56;;;;;;;3.40;1.35;;;;;;;-0.14;100.00;99726.27;1733834;82;21609;-72
2022/01/07 04:20:27;;;;;;;2.87;1.40;;;;;;;-0.17;100.00;99727.13;1733653;82;21632;-72
2022/01/07 04:22:53;;;;;;;2.27;1.37;;;;;;;-0.20;100.00;99730.16;1733204;82;25927;-71
2022/01/07 04:25:21;;;;;;;2.75;1.55;;;;;;;-0.21;100.00;99727.98;1733409;82;21961;-73
2022/01/07 04:27:50;;;;;;;2.33;1.30;;;;;;;-0.22;100.00;99737.48;1710163;82;21062;-72
2022/01/07 04:30:17;;;;;;;2.65;1.30;;;;;;;-0.21;100.00;99738.34;1703920;84;21053;-71
2022/01/07 04:32:44;;;;;;;3.02;1.42;;;;;;;-0.24;100.00;99737.91;1703837;84;21046;-72
2022/01/07 04:35:14;;;;;;;3.83;1.30;;;;;;;-0.29;100.00;99744.81;1704585;84;21106;-72
2022/01/07 04:37:40;;;;;;;2.90;1.32;;;;;;;-0.32;100.00;99751.29;1708374;84;21134;-72
2022/01/07 04:40:09;;;;;;;2.67;1.32;;;;;;;-0.31;100.00;99754.73;1705517;82;21493;-71
2022/01/07 04:42:37;;;;;;;4.10;1.85;;;;;;;-0.31;100.00;99754.30;1698355;84;21533;-72
2022/01/07 04:45:05;;;;;;;2.95;1.80;;;;;;;-0.31;100.00;99761.20;1698301;84;21647;-72
2022/01/07 04:47:35;;;;;;;3.10;1.70;;;;;;;-0.34;100.00;99769.83;1693689;84;21117;-71
2022/01/07 04:50:02;;;;;;;3.05;1.80;;;;;;;-0.36;100.00;99765.08;1693441;84;21540;-72
2022/01/07 04:52:28;;;;;;;4.08;1.90;;;;;;;-0.34;100.00;99772.85;1693333;84;21054;-72
2022/01/07 04:54:55;;;;;;;3.72;2.12;;;;;;;-0.37;100.00;99773.68;1693277;84;21141;-72
2022/01/07 04:57:21;;;;;;;4.12;2.45;;;;;;;-0.37;100.00;99776.27;1698441;84;21053;-73
2022/01/07 04:59:48;;;;;;;4.22;1.95;;;;;;;-0.38;100.00;99777.58;1698766;84;21637;-73
2022/01/07 05:02:14;;;;;;;4.47;2.27;;;;;;;-0.39;100.00;99785.78;1693700;84;22117;-73
2022/01/07 05:04:41;;;;;;;3.80;2.20;;;;;;;-0.38;100.00;99789.23;1698387;83;21024;-73
2022/01/07 05:07:07;;;;;;;3.75;2.40;;;;;;;-0.37;100.00;99796.97;1719274;83;21052;-73
2022/01/07 05:09:36;;;;;;;3.12;2.00;;;;;;;-0.39;100.00;99797.42;1690499;84;21080;-73
2022/01/07 05:12:05;;;;;;;4.60;2.40;;;;;;;-0.54;100.00;99776.25;1690206;84;21083;-72
2022/01/07 05:14:31;;;;;;;3.67;2.42;;;;;;;-0.44;100.00;99806.47;1690806;84;21106;-71
2022/01/07 05:16:59;;;;;;;3.92;2.27;;;;;;;-0.47;100.00;99805.58;1690182;84;21095;-71
2022/01/07 05:19:26;;;;;;;3.40;2.40;;;;;;;-0.48;100.00;99814.22;1690195;84;21036;-73
2022/01/07 05:21:53;;;;;;;3.83;2.05;;;;;;;-0.49;100.00;99822.82;1690137;84;21036;-74
2022/01/07 05:24:19;;;;;;;4.35;2.33;;;;;;;-0.55;100.00;99821.50;1687080;84;21201;-72
2022/01/07 05:26:46;;;;;;;5.03;2.25;;;;;;;-0.57;100.00;99827.13;1688963;84;22462;-72
2022/01/07 05:29:13;;;;;;;3.17;2.42;;;;;;;-0.59;100.00;99836.60;1690255;84;21076;-72
2022/01/07 05:31:39;;;;;;;3.75;1.90;;;;;;;-0.57;100.00;99840.06;1671648;84;21606;-71
2022/01/07 05:34:05;;;;;;;3.52;2.20;;;;;;;-0.58;100.00;99846.07;1666552;84;21067;-74
2022/01/07 05:36:32;;;;;;;3.12;1.95;;;;;;;-0.59;100.00;99852.12;1690397;84;21123;-70
2022/01/07 05:38:58;;;;;;;3.35;1.92;;;;;;;-0.60;100.00;99852.52;1669870;84;21144;-72
2022/01/07 05:41:25;;;;;;;3.22;2.00;;;;;;;-0.62;100.00;99855.56;1693791;84;21187;-74
2022/01/07 05:43:51;;;;;;;4.10;2.00;;;;;;;-0.61;100.00;99862.88;1683260;84;21042;-73
2022/01/07 05:46:18;;;;;;;3.10;1.90;;;;;;;-0.66;100.00;99872.77;1686442;84;21024;-74
2022/01/07 05:48:45;;;;;;;3.02;1.90;;;;;;;-0.65;100.00;99883.54;1690769;84;21129;-68
2022/01/07 05:51:13;;;;;;;3.27;2.22;;;;;;;-0.62;100.00;99885.70;1672515;84;21132;-70
2022/01/07 05:53:40;;;;;;;3.95;2.02;;;;;;;-0.61;100.00;99893.92;1689676;84;21060;-73
2022/01/07 05:56:07;;;;;;;4.12;2.00;;;;;;;-0.61;100.00;99893.48;1661834;86;21071;-74
2022/01/07 05:58:34;;;;;;;3.17;2.08;;;;;;;-0.58;100.00;99901.68;1662385;86;21532;-71
2022/01/07 06:01:00;;;;;;;3.47;2.10;;;;;;;-0.57;100.00;99897.82;1673525;84;21286;-73
2022/01/07 06:03:27;;;;;;;2.37;1.67;;;;;;;-0.56;100.00;99905.14;1696204;84;22631;-72
2022/01/07 06:05:53;;;;;;;3.50;1.60;;;;;;;-0.56;100.00;99902.55;1689690;83;21040;-72
2022/01/07 06:08:20;;;;;;;3.42;1.75;;;;;;;-0.58;100.00;99917.20;1668364;84;21160;-71
2022/01/07 06:10:47;;;;;;;3.12;1.98;;;;;;;-0.60;100.00;99930.55;1680104;85;21017;-74
2022/01/07 06:13:13;;;;;;;2.83;1.70;;;;;;;-0.64;100.00;99937.02;1671863;84;21053;-74
2022/01/07 06:15:40;;;;;;;2.42;1.47;;;;;;;-0.67;100.00;99940.89;1708792;83;22392;-74
2022/01/07 06:18:08;;;;;;;3.12;1.60;;;;;;;-0.71;100.00;99944.30;1699107;84;21371;-73
2022/01/07 06:20:35;;;;;;;4.60;2.33;;;;;;;-0.77;100.00;99944.26;1672952;85;21159;-74
2022/01/07 06:23:01;;;;;;;2.80;1.60;;;;;;;-0.83;100.00;99962.31;1679667;84;21055;-73
2022/01/07 06:25:28;;;;;;;3.20;1.65;;;;;;;-0.89;100.00;99958.41;1662965;85;21112;-73
2022/01/07 06:27:54;;;;;;;2.55;1.37;;;;;;;-0.93;100.00;99969.58;1657662;85;21225;-73
2022/01/07 06:30:22;;;;;;;3.72;1.42;;;;;;;-1.00;100.00;99974.27;1670327;85;21061;-74
2022/01/07 06:32:49;;;;;;;2.92;1.82;;;;;;;-1.07;100.00;99979.39;1699361;84;21653;-72
2022/01/07 06:35:16;;;;;;;2.02;1.82;;;;;;;-1.10;100.00;99988.85;1675060;84;21160;-74
2022/01/07 06:37:43;;;;;;;3.75;1.87;;;;;;;-1.16;100.00;99996.11;1676833;84;21101;-75
2022/01/07 06:40:10;;;;;;;3.00;1.60;;;;;;;-1.24;100.00;99999.08;1708570;84;21077;-74
2022/01/07 06:42:37;;;;;;;3.12;1.70;;;;;;;-1.28;100.00;100005.06;1698923;84;21665;-73
2022/01/07 06:45:06;;;;;;;2.20;1.60;;;;;;;-1.34;100.00;100017.91;1695883;83;21332;-74
2022/01/07 06:47:35;;;;;;;1.75;1.10;;;;;;;-1.40;100.00;100012.67;1677621;85;21224;-74
2022/01/07 06:50:01;;;;;;;2.20;1.60;;;;;;;-1.49;100.00;100024.67;1671930;85;21164;-73
2022/01/07 06:52:31;;;;;;;6.30;1.60;;;;;;;-1.53;98.01;100034.52;1683163;85;21997;-73
2022/01/07 06:54:57;;;;;;;2.50;1.50;;;;;;;-1.57;96.80;100044.37;1683481;84;22062;-74
2022/01/07 06:57:28;;;;;;;1.98;1.10;;;;;;;-1.61;93.94;100043.92;1708785;83;21077;-75
2022/01/07 06:59:54;;;;;;;1.42;1.05;;;;;;;-1.67;88.49;100050.73;1651581;85;21056;-74
2022/01/07 07:02:23;;;;;;;6.05;1.10;;;;;;;-1.69;86.94;100064.91;1680051;85;21044;-74
2022/01/07 07:04:49;;;;;;;2.58;1.30;;;;;;;-1.73;84.06;100065.71;1680266;84;21502;-71
2022/01/07 07:07:17;;;;;;;4.47;1.20;;;;;;;-1.75;83.72;100075.15;1679580;84;21068;-74
2022/01/07 07:09:47;;;;;;;2.95;1.37;;;;;;;-1.78;82.52;100077.70;1679022;84;21063;-74
2022/01/07 07:12:13;;;;;;;2.65;1.50;;;;;;;-1.81;82.59;100080.26;1657298;86;21087;-75
2022/01/07 07:14:42;;;;;;;7.28;1.40;;;;;;;-1.80;84.08;100087.14;1672799;85;21559;-73
2022/01/07 07:17:08;;;;;;;3.47;1.50;;;;;;;-1.78;85.22;100090.61;1673649;85;21561;-74
2022/01/07 07:19:35;;;;;;;4.58;1.85;;;;;;;-1.74;85.41;100099.70;1659301;84;21684;-74
2022/01/07 07:22:01;;;;;;;4.53;2.15;;;;;;;-1.46;84.18;100107.78;1700815;84;21834;-74
2022/01/07 07:24:28;;;;;;;4.75;1.67;;;;;;;-0.81;81.65;100102.81;1677478;84;21165;-74
2022/01/07 07:27:01;;;;;;;3.92;2.12;;;;;;;0.03;79.53;100114.20;1702740;84;21045;-73
2022/01/07 07:29:31;;;;;;;3.05;2.00;;;;;;;0.89;76.10;100113.22;1695762;84;21176;-75
2022/01/07 07:31:59;;;;;;;4.08;2.45;;;;;;;1.76;71.51;100109.80;1690494;84;21032;-74
2022/01/07 07:34:57;;;;;;;6.28;2.75;;;;;;;2.52;69.17;100119.09;1689082;84;21124;-74
2022/01/07 07:37:13;;;;;;;6.22;2.80;;;;;;;3.12;64.24;100121.35;1700674;83;21464;-74
2022/01/07 07:39:41;;;;;;;3.22;2.02;;;;;;;3.73;62.60;100118.71;1719719;83;21027;-74
2022/01/07 07:42:08;;;;;;;3.12;1.35;;;;;;;4.34;58.46;100124.16;1719533;83;21661;-75
2022/01/07 07:44:36;;;;;;;2.85;1.40;;;;;;;4.84;56.80;100130.03;1709542;83;21135;-75
2022/01/07 07:47:03;;;;;;;3.10;1.25;;;;;;;5.35;53.38;100120.16;1701450;83;21111;-73
2022/01/07 07:49:29;;;;;;;2.27;1.30;;;;;;;5.70;52.84;100133.53;1698261;83;21145;-74
2022/01/07 07:51:56;;;;;;;3.50;1.52;;;;;;;5.95;51.10;100132.69;1709033;83;21399;-74
2022/01/07 07:54:22;;;;;;;7.17;2.85;;;;;;;6.12;48.27;100136.30;1674543;84;21571;-73
2022/01/07 07:56:49;;;;;;;5.60;2.22;;;;;;;6.23;49.43;100139.13;1702423;83;21102;-74
2022/01/07 07:59:15;;;;;;;3.05;1.65;;;;;;;6.32;45.34;100138.09;1694189;83;21061;-74
2022/01/07 08:01:42;;;;;;;3.60;1.62;;;;;;;6.41;45.22;100144.90;1710831;83;21536;-74
2022/01/07 08:04:12;;;;;;;2.65;1.50;;;;;;;6.47;45.09;100153.49;1697887;83;21531;-73
2022/01/07 08:06:39;;;;;;;3.58;2.02;;;;;;;6.85;45.98;100163.60;1673307;84;21117;-73
2022/01/07 08:09:07;;;;;;;5.08;1.77;;;;;;;7.33;42.76;100167.34;1714045;82;21054;-74
2022/01/07 08:11:48;;;;;;;3.27;1.72;;;;;;;7.42;41.91;100170.66;1708223;82;21109;-71
2022/01/07 08:16:50;;;;;;;10.10;4.50;;;;;;;7.69;39.91;100182.25;1707916;82;21054;-73
2022/01/07 08:19:17;;;;;;;15.80;6.62;;;;;;;7.85;39.43;100174.88;1716365;82;21133;-72
2022/01/07 08:21:45;;;;;;;15.50;5.40;;;;;;;8.05;40.14;100185.72;1711723;82;21042;-73
2022/01/07 08:24:11;;;;;;;12.47;4.33;;;;;;;8.41;40.73;100193.53;1689067;82;21636;-73
2022/01/07 08:26:38;;;;;;;26.33;9.98;;;;;;;8.72;38.39;100192.67;1678233;83;21081;-71
2022/01/07 08:29:08;;;;;;;12.30;5.15;;;;;;;8.65;37.90;100210.82;1702716;82;21052;-72
2022/01/07 08:36:47;;;;;;;5.47;2.55;;;;;;;8.47;36.78;100218.77;1715124;82;21637;-73
2022/01/07 08:39:14;;;;;;;5.05;2.75;;;;;;;8.67;35.35;100223.45;1706862;82;21069;-73
2022/01/07 08:41:42;;;;;;;5.10;1.98;;;;;;;8.76;34.29;100229.30;1705779;82;21181;-72
2022/01/07 08:44:09;;;;;;;3.55;1.80;;;;;;;8.77;34.16;100251.20;1705569;82;21503;-72
2022/01/07 08:46:36;;;;;;;10.98;4.10;;;;;;;8.76;33.36;100250.77;1704275;84;21094;-72
2022/01/07 08:49:04;;;;;;;3.05;1.42;;;;;;;8.83;33.19;100253.63;1704046;82;21049;-72
2022/01/07 08:51:30;;;;;;;3.37;1.52;;;;;;;9.10;33.50;100257.25;1704088;83;21109;-72
2022/01/07 08:53:57;;;;;;;2.83;1.87;;;;;;;9.28;31.77;100265.52;1715190;82;21083;-72
2022/01/07 08:56:24;;;;;;;8.90;4.62;;;;;;;9.14;32.89;100272.03;1717855;82;21941;-71
2022/01/07 08:58:57;;;;;;;25.02;10.80;;;;;;;9.14;33.17;100271.17;1704553;82;21046;-72
2022/01/07 09:01:25;;;;;;;25.88;9.13;;;;;;;9.22;33.58;100279.25;1707905;82;21089;-72
2022/01/07 09:03:51;;;;;;;2.75;1.40;;;;;;;9.46;34.02;100284.68;1727448;82;21078;-72
2022/01/07 09:06:18;;;;;;;4.97;2.10;;;;;;;9.52;31.15;100287.56;1722287;82;21050;-70
2022/01/07 09:08:47;;;;;;;32.35;11.73;;;;;;;9.49;32.30;100292.92;1703859;82;21524;-70
2022/01/07 09:11:13;;;;;;;12.78;5.83;;;;;;;9.52;33.56;100294.14;1725421;82;21027;-70
2022/01/07 09:13:39;;;;;;;7.35;3.33;;;;;;;9.44;33.25;100301.80;1695845;82;21113;-71
2022/01/07 09:16:06;;;;;;;21.95;7.08;;;;;;;9.45;33.00;100294.77;1693160;82;21038;-71
2022/01/07 09:18:33;;;;;;;37.03;15.43;;;;;;;9.62;33.90;100306.97;1715614;82;21042;-70
2022/01/07 09:20:59;;;;;;;5.33;2.50;;;;;;;9.92;33.09;100297.73;1732948;82;21117;-72
2022/01/07 09:23:25;;;;;;;19.32;6.62;;;;;;;10.00;33.31;100294.37;1721274;82;21021;-72
2022/01/07 09:25:52;;;;;;;5.67;2.90;;;;;;;10.11;31.49;100292.73;1712125;82;21124;-72
2022/01/07 09:28:18;;;;;;;9.25;4.67;;;;;;;10.29;32.01;100294.79;1717778;82;21077;-70
2022/01/07 09:30:45;;;;;;;5.28;1.62;;;;;;;10.27;30.08;100291.77;1722239;82;21066;-72
2022/01/07 09:33:11;;;;;;;4.37;1.82;;;;;;;10.18;30.70;100324.97;1723464;82;21075;-69
2022/01/07 09:35:37;;;;;;;6.10;1.70;;;;;;;10.05;29.57;100300.81;1708967;82;21036;-72
2022/01/07 09:38:05;;;;;;;7.15;2.55;;;;;;;9.93;30.42;100306.47;1718837;82;21003;-72
2022/01/07 09:40:32;;;;;;;2.37;1.17;;;;;;;10.00;29.20;100314.11;1721986;82;21006;-72
2022/01/07 09:43:05;;;;;;;3.75;1.95;;;;;;;9.80;30.42;100313.88;1714296;82;21039;-72
2022/01/07 09:45:33;;;;;;;3.55;1.57;;;;;;;9.68;30.03;100321.69;1712419;82;21227;-71
2022/01/07 09:48:01;;;;;;;9.55;4.15;;;;;;;9.43;30.43;100313.66;1716726;82;21046;-72
2022/01/07 09:50:29;;;;;;;10.85;4.20;;;;;;;9.28;30.67;100325.95;1728911;82;21030;-72
2022/01/07 09:52:55;;;;;;;21.73;9.03;;;;;;;9.41;33.26;100324.70;1716680;82;21316;-72
2022/01/07 09:55:22;;;;;;;3.72;2.00;;;;;;;9.73;34.23;100329.01;1708568;82;21070;-72
2022/01/07 09:57:48;;;;;;;9.18;4.15;;;;;;;9.87;31.05;100333.84;1706660;82;21078;-74
2022/01/07 10:00:17;;;;;;;3.72;1.70;;;;;;;9.79;31.57;100331.43;1702846;82;21843;-74
2022/01/07 10:03:11;;;;;;;13.53;6.97;;;;;;;9.77;30.85;100335.87;1708273;82;21057;-74
2022/01/07 10:05:45;;;;;;;5.45;2.72;;;;;;;9.93;35.19;100343.30;1712557;82;21052;-74
2022/01/07 10:08:27;;;;;;;3.08;1.62;;;;;;;10.08;30.80;100338.89;1722655;80;21084;-73
2022/01/07 10:11:18;;;;;;;3.52;1.72;;;;;;;10.09;29.55;100335.33;1676692;85;21556;-72
2022/01/07 10:13:47;;;;;;;2.70;1.27;;;;;;;9.93;29.83;100349.88;1704845;82;21089;-72
2022/01/07 10:16:18;;;;;;;4.08;1.80;;;;;;;10.02;29.92;100340.39;1735941;82;21056;-72
2022/01/07 10:18:47;;;;;;;3.25;1.35;;;;;;;10.15;30.45;100352.25;1746730;82;21186;-70
2022/01/07 10:21:17;;;;;;;5.70;2.15;;;;;;;10.32;28.87;100360.09;1735530;82;21096;-71
2022/01/07 10:23:44;;;;;;;5.28;2.20;;;;;;;10.62;29.20;100356.44;1737123;82;21157;-73
2022/01/07 10:26:17;;;;;;;2.65;1.17;;;;;;;11.06;28.46;100365.05;1735117;82;21052;-73
2022/01/07 10:28:44;;;;;;;4.30;1.22;;;;;;;11.16;27.05;100355.03;1731705;82;21107;-73
2022/01/07 10:31:21;;;;;;;5.30;1.20;;;;;;;11.12;28.22;100363.06;1723199;82;21163;-74
2022/01/07 10:33:49;;;;;;;1.50;0.82;;;;;;;11.21;27.80;100356.61;1732493;82;21099;-73
2022/01/07 10:36:20;;;;;;;1.72;1.00;;;;;;;10.45;27.89;100360.97;1722414;82;21459;-72
2022/01/07 10:38:52;;;;;;;;;;;;;;;9.99;28.48;100369.44;1729200;82;21071;-73
2022/01/07 10:41:18;;;;;;;2.60;1.00;;;;;;;9.62;28.92;100362.65;1719747;82;20235;-73
2022/01/07 10:43:45;;;;;;;2.60;1.10;;;;;;;9.06;29.92;100362.47;1719561;82;21018;-72
2022/01/07 10:46:27;;;;;;;2.72;1.30;;;;;;;8.73;30.70;100367.71;1719717;82;21045;-72
2022/01/07 10:49:01;;;;;;;3.10;1.50;;;;;;;8.66;30.13;100368.77;1725818;82;21852;-72
2022/01/07 10:51:32;;;;;;;20.90;9.53;;;;;;;8.89;31.10;100361.16;1735941;82;21098;-71
2022/01/07 10:54:04;;;;;;;26.60;12.40;;;;;;;9.41;36.56;100364.99;1731263;82;21605;-71
2022/01/07 10:56:40;;;;;;;25.25;11.30;;;;;;;9.99;38.11;100360.23;1717450;83;21135;-72
2022/01/07 10:59:12;;;;;;;7.15;3.65;;;;;;;10.24;31.79;100370.39;1717569;82;21365;-72
2022/01/07 11:01:59;;;;;;;5.10;2.50;;;;;;;9.67;30.14;100373.89;1720244;83;21521;-72
2022/01/07 11:04:30;;;;;;;5.62;2.12;;;;;;;8.85;30.49;100380.52;1718438;83;21018;-74
2022/01/07 11:07:02;;;;;;;4.55;1.25;;;;;;;8.50;31.93;100374.39;1683657;83;21044;-73
2022/01/07 11:09:32;;;;;;;8.63;4.87;;;;;;;8.39;31.03;100381.62;1677690;85;21506;-72
2022/01/07 11:12:02;;;;;;;;;;;;;;;8.43;31.46;100378.53;1698257;84;21063;-71
2022/01/07 11:14:33;;;;;;;6.70;2.87;;;;;;;8.28;33.60;100384.95;1667447;84;21480;-74
2022/01/07 11:17:04;;;;;;;12.20;5.58;;;;;;;7.94;33.43;100383.13;1677494;84;20987;-72
2022/01/07 11:19:38;;;;;;;4.78;1.62;;;;;;;7.29;35.25;100373.09;1672404;84;21077;-74
2022/01/07 11:22:04;;;;;;;11.22;5.75;;;;;;;6.71;36.40;100373.28;1681130;84;21124;-71
2022/01/07 11:24:47;;;;;;;7.35;3.42;;;;;;;6.17;37.64;100385.52;1679595;84;21104;-72
2022/01/07 11:27:17;;;;;;;7.45;3.22;;;;;;;5.72;38.05;100386.53;1674930;84;21128;-72
2022/01/07 11:30:11;;;;;;;;;;;;;;;5.16;39.02;100384.58;1685833;84;21106;-73
2022/01/07 11:32:40;;;;;;;4.40;1.80;;;;;;;4.76;39.96;100384.98;1677748;84;20791;-73
2022/01/07 11:35:23;;;;;;;5.60;2.72;;;;;;;4.13;41.13;100396.33;1672983;84;21089;-72
2022/01/07 11:37:59;;;;;;;10.43;3.02;;;;;;;3.67;42.06;100400.49;1676282;84;21105;-72
2022/01/07 11:40:41;;;;;;;11.80;5.12;;;;;;;3.22;44.20;100402.38;1681702;84;21187;-72
2022/01/07 11:43:23;;;;;;;8.48;3.75;;;;;;;2.86;46.40;100405.06;1670415;84;21092;-72
2022/01/07 11:45:50;;;;;;;6.78;3.15;;;;;;;2.44;47.67;100404.62;1678213;84;21084;-72